sensor_id;sensor_type;location;lat;lon;timestamp;P1;durP1;ratioP1;P2;durP2;ratioP2
50205;SDS011;36098;48.390;10.856;2022-12-07T00:00:49;1.73;;;1.48;;
50205;SDS011;36098;48.390;10.856;2022-12-07T00:03:14;1.73;;;1.20;;
50205;SDS011;36098;48.390;10.856;2022-12-07T00:05:40;3.92;;;1.48;;
50205;SDS011;36098;48.390;10.856;2022-12-07T00:08:05;3.20;;;1.30;;
50205;SDS011;36098;48.390;10.856;2022-12-07T00:10:32;2.30;;;1.38;;
50205;SDS011;36098;48.390;10.856;2022-12-07T00:12:58;1.60;;;1.27;;
50205;SDS011;36098;48.390;10.856;2022-12-07T00:15:23;1.85;;;1.42;;
50205;SDS011;36098;48.390;10.856;2022-12-07T00:17:49;1.67;;;1.40;;
50205;SDS011;36098;48.390;10.856;2022-12-07T00:20:14;1.58;;;1.30;;
50205;SDS011;36098;48.390;10.856;2022-12-07T00:22:39;1.70;;;1.30;;
50205;SDS011;36098;48.390;10.856;2022-12-07T00:25:05;1.73;;;1.40;;
50205;SDS011;36098;48.390;10.856;2022-12-07T00:27:30;1.90;;;1.30;;
50205;SDS011;36098;48.390;10.856;2022-12-07T00:29:55;1.45;;;1.20;;
50205;SDS011;36098;48.390;10.856;2022-12-07T00:32:20;2.13;;;1.50;;
50205;SDS011;36098;48.390;10.856;2022-12-07T00:34:46;2.00;;;1.52;;
50205;SDS011;36098;48.390;10.856;2022-12-07T00:37:11;1.83;;;1.33;;
50205;SDS011;36098;48.390;10.856;2022-12-07T00:39:37;1.80;;;1.30;;
50205;SDS011;36098;48.390;10.856;2022-12-07T00:42:02;1.50;;;1.30;;
50205;SDS011;36098;48.390;10.856;2022-12-07T00:44:28;2.10;;;1.23;;
50205;SDS011;36098;48.390;10.856;2022-12-07T00:46:53;1.67;;;1.20;;
50205;SDS011;36098;48.390;10.856;2022-12-07T00:49:19;1.60;;;1.42;;
50205;SDS011;36098;48.390;10.856;2022-12-07T00:51:44;1.75;;;1.40;;
50205;SDS011;36098;48.390;10.856;2022-12-07T00:54:10;1.95;;;1.48;;
50205;SDS011;36098;48.390;10.856;2022-12-07T00:56:35;1.70;;;1.45;;
50205;SDS011;36098;48.390;10.856;2022-12-07T00:59:01;1.58;;;1.38;;
50205;SDS011;36098;48.390;10.856;2022-12-07T01:01:29;2.05;;;1.45;;
50205;SDS011;36098;48.390;10.856;2022-12-07T01:03:56;1.75;;;1.30;;
50205;SDS011;36098;48.390;10.856;2022-12-07T01:06:22;1.60;;;1.30;;
50205;SDS011;36098;48.390;10.856;2022-12-07T01:08:48;1.90;;;1.60;;
50205;SDS011;36098;48.390;10.856;2022-12-07T01:11:15;1.75;;;1.60;;
50205;SDS011;36098;48.390;10.856;2022-12-07T01:13:41;1.73;;;1.40;;
50205;SDS011;36098;48.390;10.856;2022-12-07T01:16:07;1.75;;;1.40;;
50205;SDS011;36098;48.390;10.856;2022-12-07T01:18:34;1.92;;;1.40;;
50205;SDS011;36098;48.390;10.856;2022-12-07T01:23:34;1.63;;;1.35;;
50205;SDS011;36098;48.390;10.856;2022-12-07T01:26:01;1.95;;;1.30;;
50205;SDS011;36098;48.390;10.856;2022-12-07T01:28:28;1.50;;;1.40;;
50205;SDS011;36098;48.390;10.856;2022-12-07T01:30:58;2.88;;;1.30;;
50205;SDS011;36098;48.390;10.856;2022-12-07T01:33:29;2.42;;;1.70;;
50205;SDS011;36098;48.390;10.856;2022-12-07T01:36:06;1.58;;;1.20;;
50205;SDS011;36098;48.390;10.856;2022-12-07T01:38:33;1.88;;;1.50;;
50205;SDS011;36098;48.390;10.856;2022-12-07T01:40:59;1.70;;;1.40;;
50205;SDS011;36098;48.390;10.856;2022-12-07T01:43:26;1.92;;;1.30;;
50205;SDS011;36098;48.390;10.856;2022-12-07T01:45:53;2.10;;;1.42;;
50205;SDS011;36098;48.390;10.856;2022-12-07T01:48:21;1.80;;;1.50;;
50205;SDS011;36098;48.390;10.856;2022-12-07T01:50:50;1.50;;;1.30;;
50205;SDS011;36098;48.390;10.856;2022-12-07T01:53:17;2.25;;;1.45;;
50205;SDS011;36098;48.390;10.856;2022-12-07T01:55:44;1.60;;;1.40;;
50205;SDS011;36098;48.390;10.856;2022-12-07T01:58:12;2.63;;;1.60;;
50205;SDS011;36098;48.390;10.856;2022-12-07T02:00:39;1.52;;;1.38;;
50205;SDS011;36098;48.390;10.856;2022-12-07T02:03:18;1.52;;;1.30;;
50205;SDS011;36098;48.390;10.856;2022-12-07T02:05:48;1.65;;;1.33;;
50205;SDS011;36098;48.390;10.856;2022-12-07T02:08:14;1.70;;;1.38;;
50205;SDS011;36098;48.390;10.856;2022-12-07T02:10:39;1.70;;;1.40;;
50205;SDS011;36098;48.390;10.856;2022-12-07T02:18:44;1.80;;;1.55;;
50205;SDS011;36098;48.390;10.856;2022-12-07T02:21:05;1.60;;;1.25;;
50205;SDS011;36098;48.390;10.856;2022-12-07T02:29:21;1.95;;;1.40;;
50205;SDS011;36098;48.390;10.856;2022-12-07T02:34:41;1.50;;;1.30;;
50205;SDS011;36098;48.390;10.856;2022-12-07T02:37:19;2.22;;;1.45;;
50205;SDS011;36098;48.390;10.856;2022-12-07T02:39:57;1.92;;;1.40;;
50205;SDS011;36098;48.390;10.856;2022-12-07T02:42:31;1.15;;;1.00;;
50205;SDS011;36098;48.390;10.856;2022-12-07T02:45:01;1.65;;;1.30;;
50205;SDS011;36098;48.390;10.856;2022-12-07T02:47:27;1.95;;;1.58;;
50205;SDS011;36098;48.390;10.856;2022-12-07T02:49:54;1.65;;;1.23;;
50205;SDS011;36098;48.390;10.856;2022-12-07T02:52:20;1.63;;;1.20;;
50205;SDS011;36098;48.390;10.856;2022-12-07T02:54:45;1.83;;;1.40;;
50205;SDS011;36098;48.390;10.856;2022-12-07T03:02:34;1.40;;;1.30;;
50205;SDS011;36098;48.390;10.856;2022-12-07T03:16:05;1.30;;;1.17;;
50205;SDS011;36098;48.390;10.856;2022-12-07T03:18:40;1.73;;;1.33;;
50205;SDS011;36098;48.390;10.856;2022-12-07T03:21:33;2.33;;;1.60;;
50205;SDS011;36098;48.390;10.856;2022-12-07T03:24:09;1.85;;;1.35;;
50205;SDS011;36098;48.390;10.856;2022-12-07T03:26:41;1.50;;;1.30;;
50205;SDS011;36098;48.390;10.856;2022-12-07T03:29:12;1.38;;;1.20;;
50205;SDS011;36098;48.390;10.856;2022-12-07T03:31:43;2.00;;;1.60;;
50205;SDS011;36098;48.390;10.856;2022-12-07T03:34:24;1.88;;;1.40;;
50205;SDS011;36098;48.390;10.856;2022-12-07T03:37:08;2.00;;;1.63;;
50205;SDS011;36098;48.390;10.856;2022-12-07T03:39:41;1.42;;;1.23;;
50205;SDS011;36098;48.390;10.856;2022-12-07T03:42:14;1.80;;;1.50;;
50205;SDS011;36098;48.390;10.856;2022-12-07T03:44:40;1.95;;;1.48;;
50205;SDS011;36098;48.390;10.856;2022-12-07T03:49:49;1.80;;;1.48;;
50205;SDS011;36098;48.390;10.856;2022-12-07T03:52:26;1.42;;;1.23;;
50205;SDS011;36098;48.390;10.856;2022-12-07T03:57:49;1.90;;;1.60;;
50205;SDS011;36098;48.390;10.856;2022-12-07T04:00:17;1.98;;;1.60;;
50205;SDS011;36098;48.390;10.856;2022-12-07T04:02:43;1.67;;;1.38;;
50205;SDS011;36098;48.390;10.856;2022-12-07T04:05:09;1.52;;;1.42;;
50205;SDS011;36098;48.390;10.856;2022-12-07T04:07:35;1.88;;;1.50;;
50205;SDS011;36098;48.390;10.856;2022-12-07T04:10:00;3.17;;;1.70;;
50205;SDS011;36098;48.390;10.856;2022-12-07T04:12:25;1.45;;;1.30;;
50205;SDS011;36098;48.390;10.856;2022-12-07T04:14:51;1.77;;;1.40;;
50205;SDS011;36098;48.390;10.856;2022-12-07T04:17:16;2.00;;;1.50;;
50205;SDS011;36098;48.390;10.856;2022-12-07T04:19:41;2.00;;;1.50;;
50205;SDS011;36098;48.390;10.856;2022-12-07T04:22:06;1.50;;;1.35;;
50205;SDS011;36098;48.390;10.856;2022-12-07T04:24:32;2.30;;;1.42;;
50205;SDS011;36098;48.390;10.856;2022-12-07T04:26:58;2.22;;;1.65;;
50205;SDS011;36098;48.390;10.856;2022-12-07T04:29:23;1.70;;;1.30;;
50205;SDS011;36098;48.390;10.856;2022-12-07T04:31:49;1.63;;;1.45;;
50205;SDS011;36098;48.390;10.856;2022-12-07T04:34:14;1.40;;;1.20;;
50205;SDS011;36098;48.390;10.856;2022-12-07T04:36:41;1.42;;;1.30;;
50205;SDS011;36098;48.390;10.856;2022-12-07T04:39:06;1.50;;;1.40;;
50205;SDS011;36098;48.390;10.856;2022-12-07T04:41:33;1.95;;;1.48;;
50205;SDS011;36098;48.390;10.856;2022-12-07T04:44:00;2.03;;;1.60;;
50205;SDS011;36098;48.390;10.856;2022-12-07T04:46:27;1.48;;;1.38;;
50205;SDS011;36098;48.390;10.856;2022-12-07T04:48:53;1.80;;;1.60;;
50205;SDS011;36098;48.390;10.856;2022-12-07T04:51:20;1.40;;;1.23;;
50205;SDS011;36098;48.390;10.856;2022-12-07T04:53:50;1.52;;;1.33;;
50205;SDS011;36098;48.390;10.856;2022-12-07T04:56:16;1.80;;;1.50;;
50205;SDS011;36098;48.390;10.856;2022-12-07T04:58:42;2.03;;;1.58;;
50205;SDS011;36098;48.390;10.856;2022-12-07T05:01:09;1.80;;;1.50;;
50205;SDS011;36098;48.390;10.856;2022-12-07T05:03:35;1.75;;;1.42;;
50205;SDS011;36098;48.390;10.856;2022-12-07T05:06:01;1.73;;;1.50;;
50205;SDS011;36098;48.390;10.856;2022-12-07T05:08:26;2.10;;;1.50;;
50205;SDS011;36098;48.390;10.856;2022-12-07T05:10:51;1.50;;;1.20;;
50205;SDS011;36098;48.390;10.856;2022-12-07T05:13:17;1.80;;;1.40;;
50205;SDS011;36098;48.390;10.856;2022-12-07T05:15:42;2.08;;;1.25;;
50205;SDS011;36098;48.390;10.856;2022-12-07T05:18:09;1.73;;;1.40;;
50205;SDS011;36098;48.390;10.856;2022-12-07T05:20:34;1.90;;;1.60;;
50205;SDS011;36098;48.390;10.856;2022-12-07T05:22:59;1.83;;;1.50;;
50205;SDS011;36098;48.390;10.856;2022-12-07T05:25:25;1.42;;;1.33;;
50205;SDS011;36098;48.390;10.856;2022-12-07T05:27:50;1.55;;;1.40;;
50205;SDS011;36098;48.390;10.856;2022-12-07T05:30:16;1.55;;;1.35;;
50205;SDS011;36098;48.390;10.856;2022-12-07T05:32:41;1.58;;;1.33;;
50205;SDS011;36098;48.390;10.856;2022-12-07T05:35:06;1.60;;;1.40;;
50205;SDS011;36098;48.390;10.856;2022-12-07T05:37:32;1.40;;;1.08;;
50205;SDS011;36098;48.390;10.856;2022-12-07T05:39:57;1.60;;;1.40;;
50205;SDS011;36098;48.390;10.856;2022-12-07T05:42:23;1.95;;;1.52;;
50205;SDS011;36098;48.390;10.856;2022-12-07T05:44:49;1.52;;;1.27;;
50205;SDS011;36098;48.390;10.856;2022-12-07T05:47:15;1.40;;;1.30;;
50205;SDS011;36098;48.390;10.856;2022-12-07T05:49:40;3.42;;;1.38;;
50205;SDS011;36098;48.390;10.856;2022-12-07T05:52:06;1.60;;;1.50;;
50205;SDS011;36098;48.390;10.856;2022-12-07T05:54:32;1.50;;;1.40;;
50205;SDS011;36098;48.390;10.856;2022-12-07T05:56:57;3.00;;;1.35;;
50205;SDS011;36098;48.390;10.856;2022-12-07T05:59:23;4.20;;;1.50;;
50205;SDS011;36098;48.390;10.856;2022-12-07T06:02:02;1.50;;;1.23;;
50205;SDS011;36098;48.390;10.856;2022-12-07T06:04:30;3.67;;;1.52;;
50205;SDS011;36098;48.390;10.856;2022-12-07T06:06:58;2.40;;;1.60;;
50205;SDS011;36098;48.390;10.856;2022-12-07T06:09:24;2.40;;;1.67;;
50205;SDS011;36098;48.390;10.856;2022-12-07T06:11:50;1.80;;;1.27;;
50205;SDS011;36098;48.390;10.856;2022-12-07T06:14:34;1.95;;;1.40;;
50205;SDS011;36098;48.390;10.856;2022-12-07T06:17:00;3.55;;;1.58;;
50205;SDS011;36098;48.390;10.856;2022-12-07T06:19:26;3.78;;;1.40;;
50205;SDS011;36098;48.390;10.856;2022-12-07T06:21:51;3.83;;;1.58;;
50205;SDS011;36098;48.390;10.856;2022-12-07T06:24:17;1.80;;;1.30;;
50205;SDS011;36098;48.390;10.856;2022-12-07T06:26:42;2.20;;;1.17;;
50205;SDS011;36098;48.390;10.856;2022-12-07T06:29:08;1.60;;;1.20;;
50205;SDS011;36098;48.390;10.856;2022-12-07T06:31:34;1.80;;;1.60;;
50205;SDS011;36098;48.390;10.856;2022-12-07T06:34:01;2.88;;;1.30;;
50205;SDS011;36098;48.390;10.856;2022-12-07T06:36:28;1.90;;;1.60;;
50205;SDS011;36098;48.390;10.856;2022-12-07T06:38:54;3.25;;;1.60;;
50205;SDS011;36098;48.390;10.856;2022-12-07T06:41:20;4.15;;;1.83;;
50205;SDS011;36098;48.390;10.856;2022-12-07T06:43:45;2.20;;;1.25;;
50205;SDS011;36098;48.390;10.856;2022-12-07T06:46:10;1.80;;;1.40;;
50205;SDS011;36098;48.390;10.856;2022-12-07T06:48:35;2.85;;;1.55;;
50205;SDS011;36098;48.390;10.856;2022-12-07T06:51:01;2.17;;;1.38;;
50205;SDS011;36098;48.390;10.856;2022-12-07T06:53:26;2.03;;;1.40;;
50205;SDS011;36098;48.390;10.856;2022-12-07T06:55:51;1.70;;;1.27;;
50205;SDS011;36098;48.390;10.856;2022-12-07T06:58:17;1.58;;;1.30;;
50205;SDS011;36098;48.390;10.856;2022-12-07T07:00:42;1.70;;;1.45;;
50205;SDS011;36098;48.390;10.856;2022-12-07T07:03:08;1.52;;;1.30;;
50205;SDS011;36098;48.390;10.856;2022-12-07T07:05:33;1.70;;;1.50;;
50205;SDS011;36098;48.390;10.856;2022-12-07T07:07:59;2.83;;;1.60;;
50205;SDS011;36098;48.390;10.856;2022-12-07T07:10:25;2.08;;;1.23;;
50205;SDS011;36098;48.390;10.856;2022-12-07T07:12:50;1.90;;;1.50;;
50205;SDS011;36098;48.390;10.856;2022-12-07T07:15:15;2.25;;;1.85;;
50205;SDS011;36098;48.390;10.856;2022-12-07T07:17:41;2.10;;;1.42;;
50205;SDS011;36098;48.390;10.856;2022-12-07T07:20:06;1.95;;;1.42;;
50205;SDS011;36098;48.390;10.856;2022-12-07T07:22:32;2.13;;;1.58;;
50205;SDS011;36098;48.390;10.856;2022-12-07T07:24:57;1.50;;;1.40;;
50205;SDS011;36098;48.390;10.856;2022-12-07T07:27:22;1.95;;;1.35;;
50205;SDS011;36098;48.390;10.856;2022-12-07T07:29:48;3.60;;;1.58;;
50205;SDS011;36098;48.390;10.856;2022-12-07T07:32:13;6.43;;;1.67;;
50205;SDS011;36098;48.390;10.856;2022-12-07T07:34:39;2.95;;;1.60;;
50205;SDS011;36098;48.390;10.856;2022-12-07T07:37:04;2.47;;;1.67;;
50205;SDS011;36098;48.390;10.856;2022-12-07T07:39:30;3.65;;;1.40;;
50205;SDS011;36098;48.390;10.856;2022-12-07T07:41:55;2.55;;;1.50;;
50205;SDS011;36098;48.390;10.856;2022-12-07T07:44:20;3.03;;;1.55;;
50205;SDS011;36098;48.390;10.856;2022-12-07T07:46:46;6.90;;;1.75;;
50205;SDS011;36098;48.390;10.856;2022-12-07T07:49:11;2.20;;;1.50;;
50205;SDS011;36098;48.390;10.856;2022-12-07T07:51:36;3.03;;;1.30;;
50205;SDS011;36098;48.390;10.856;2022-12-07T07:54:02;5.55;;;1.60;;
50205;SDS011;36098;48.390;10.856;2022-12-07T07:56:27;1.75;;;1.50;;
50205;SDS011;36098;48.390;10.856;2022-12-07T07:58:53;2.63;;;1.35;;
50205;SDS011;36098;48.390;10.856;2022-12-07T08:01:18;3.63;;;1.58;;
50205;SDS011;36098;48.390;10.856;2022-12-07T08:03:44;2.65;;;1.40;;
50205;SDS011;36098;48.390;10.856;2022-12-07T08:06:11;4.43;;;1.50;;
50205;SDS011;36098;48.390;10.856;2022-12-07T08:08:36;4.13;;;1.70;;
50205;SDS011;36098;48.390;10.856;2022-12-07T08:11:04;4.05;;;1.70;;
50205;SDS011;36098;48.390;10.856;2022-12-07T08:13:30;1.75;;;1.50;;
50205;SDS011;36098;48.390;10.856;2022-12-07T08:15:56;1.90;;;1.65;;
50205;SDS011;36098;48.390;10.856;2022-12-07T08:18:21;3.00;;;1.70;;
50205;SDS011;36098;48.390;10.856;2022-12-07T08:20:47;3.58;;;1.70;;
50205;SDS011;36098;48.390;10.856;2022-12-07T08:23:12;2.63;;;1.60;;
50205;SDS011;36098;48.390;10.856;2022-12-07T08:25:37;3.35;;;1.65;;
50205;SDS011;36098;48.390;10.856;2022-12-07T08:28:03;3.90;;;1.75;;
50205;SDS011;36098;48.390;10.856;2022-12-07T08:30:28;2.42;;;1.50;;
50205;SDS011;36098;48.390;10.856;2022-12-07T08:32:54;2.45;;;1.80;;
50205;SDS011;36098;48.390;10.856;2022-12-07T08:35:20;3.65;;;1.70;;
50205;SDS011;36098;48.390;10.856;2022-12-07T08:37:46;6.97;;;1.98;;
50205;SDS011;36098;48.390;10.856;2022-12-07T08:40:11;3.53;;;1.80;;
50205;SDS011;36098;48.390;10.856;2022-12-07T08:42:44;4.55;;;1.48;;
50205;SDS011;36098;48.390;10.856;2022-12-07T08:45:16;3.75;;;1.70;;
50205;SDS011;36098;48.390;10.856;2022-12-07T08:47:50;4.15;;;1.65;;
50205;SDS011;36098;48.390;10.856;2022-12-07T08:50:18;5.38;;;1.75;;
50205;SDS011;36098;48.390;10.856;2022-12-07T08:52:44;3.40;;;1.92;;
50205;SDS011;36098;48.390;10.856;2022-12-07T08:55:17;3.00;;;1.90;;
50205;SDS011;36098;48.390;10.856;2022-12-07T08:57:43;3.83;;;1.73;;
50205;SDS011;36098;48.390;10.856;2022-12-07T09:00:09;4.13;;;2.10;;
50205;SDS011;36098;48.390;10.856;2022-12-07T09:02:35;2.42;;;1.80;;
50205;SDS011;36098;48.390;10.856;2022-12-07T09:05:00;5.70;;;1.95;;
50205;SDS011;36098;48.390;10.856;2022-12-07T09:07:26;3.67;;;1.90;;
50205;SDS011;36098;48.390;10.856;2022-12-07T09:09:51;3.50;;;1.73;;
50205;SDS011;36098;48.390;10.856;2022-12-07T09:12:17;5.97;;;2.50;;
50205;SDS011;36098;48.390;10.856;2022-12-07T09:14:42;2.75;;;1.70;;
50205;SDS011;36098;48.390;10.856;2022-12-07T09:17:08;2.80;;;1.90;;
50205;SDS011;36098;48.390;10.856;2022-12-07T09:19:35;2.70;;;2.03;;
50205;SDS011;36098;48.390;10.856;2022-12-07T09:22:01;3.13;;;1.83;;
50205;SDS011;36098;48.390;10.856;2022-12-07T09:24:26;6.00;;;2.40;;
50205;SDS011;36098;48.390;10.856;2022-12-07T09:26:52;4.60;;;1.95;;
50205;SDS011;36098;48.390;10.856;2022-12-07T09:29:17;2.65;;;1.98;;
50205;SDS011;36098;48.390;10.856;2022-12-07T09:31:42;3.53;;;2.00;;
50205;SDS011;36098;48.390;10.856;2022-12-07T09:34:07;3.75;;;2.10;;
50205;SDS011;36098;48.390;10.856;2022-12-07T09:36:33;3.22;;;2.00;;
50205;SDS011;36098;48.390;10.856;2022-12-07T09:38:58;3.95;;;2.25;;
50205;SDS011;36098;48.390;10.856;2022-12-07T09:41:24;4.82;;;1.73;;
50205;SDS011;36098;48.390;10.856;2022-12-07T09:43:52;3.35;;;1.80;;
50205;SDS011;36098;48.390;10.856;2022-12-07T09:46:20;2.67;;;1.80;;
50205;SDS011;36098;48.390;10.856;2022-12-07T09:48:46;3.30;;;2.00;;
50205;SDS011;36098;48.390;10.856;2022-12-07T09:51:16;4.50;;;1.90;;
50205;SDS011;36098;48.390;10.856;2022-12-07T09:53:46;2.95;;;1.70;;
50205;SDS011;36098;48.390;10.856;2022-12-07T09:56:13;3.47;;;1.70;;
50205;SDS011;36098;48.390;10.856;2022-12-07T09:58:39;4.20;;;1.70;;
50205;SDS011;36098;48.390;10.856;2022-12-07T10:01:09;6.22;;;1.90;;
50205;SDS011;36098;48.390;10.856;2022-12-07T10:03:40;2.88;;;1.90;;
50205;SDS011;36098;48.390;10.856;2022-12-07T10:06:09;3.58;;;1.88;;
50205;SDS011;36098;48.390;10.856;2022-12-07T10:08:37;3.13;;;1.67;;
50205;SDS011;36098;48.390;10.856;2022-12-07T10:11:02;4.75;;;1.90;;
50205;SDS011;36098;48.390;10.856;2022-12-07T10:16:04;5.85;;;1.92;;
50205;SDS011;36098;48.390;10.856;2022-12-07T10:23:34;3.85;;;1.40;;
50205;SDS011;36098;48.390;10.856;2022-12-07T10:26:17;4.28;;;1.70;;
50205;SDS011;36098;48.390;10.856;2022-12-07T10:28:46;4.93;;;1.60;;
50205;SDS011;36098;48.390;10.856;2022-12-07T10:31:18;3.70;;;1.70;;
50205;SDS011;36098;48.390;10.856;2022-12-07T10:33:56;4.53;;;1.48;;
50205;SDS011;36098;48.390;10.856;2022-12-07T10:36:41;4.43;;;1.50;;
50205;SDS011;36098;48.390;10.856;2022-12-07T10:39:14;3.03;;;1.50;;
50205;SDS011;36098;48.390;10.856;2022-12-07T10:44:22;3.85;;;1.80;;
50205;SDS011;36098;48.390;10.856;2022-12-07T10:46:55;2.83;;;1.98;;
50205;SDS011;36098;48.390;10.856;2022-12-07T10:55:20;1.92;;;1.42;;
50205;SDS011;36098;48.390;10.856;2022-12-07T11:00:22;2.58;;;1.70;;
50205;SDS011;36098;48.390;10.856;2022-12-07T11:05:50;3.38;;;2.00;;
50205;SDS011;36098;48.390;10.856;2022-12-07T11:08:44;2.67;;;1.63;;
50205;SDS011;36098;48.390;10.856;2022-12-07T11:11:16;3.45;;;1.80;;
50205;SDS011;36098;48.390;10.856;2022-12-07T11:14:08;2.60;;;1.67;;
50205;SDS011;36098;48.390;10.856;2022-12-07T11:19:17;2.72;;;1.80;;
50205;SDS011;36098;48.390;10.856;2022-12-07T11:21:57;2.63;;;1.95;;
50205;SDS011;36098;48.390;10.856;2022-12-07T11:24:29;3.72;;;2.03;;
50205;SDS011;36098;48.390;10.856;2022-12-07T11:30:03;3.15;;;1.90;;
50205;SDS011;36098;48.390;10.856;2022-12-07T11:32:55;3.05;;;2.08;;
50205;SDS011;36098;48.390;10.856;2022-12-07T11:38:00;3.72;;;2.20;;
50205;SDS011;36098;48.390;10.856;2022-12-07T11:40:35;3.55;;;1.88;;
50205;SDS011;36098;48.390;10.856;2022-12-07T11:45:57;2.63;;;2.00;;
50205;SDS011;36098;48.390;10.856;2022-12-07T11:48:30;3.55;;;1.90;;
50205;SDS011;36098;48.390;10.856;2022-12-07T11:51:00;4.60;;;1.85;;
50205;SDS011;36098;48.390;10.856;2022-12-07T11:56:14;2.33;;;1.52;;
50205;SDS011;36098;48.390;10.856;2022-12-07T12:01:39;2.28;;;1.60;;
50205;SDS011;36098;48.390;10.856;2022-12-07T12:07:22;2.15;;;1.67;;
50205;SDS011;36098;48.390;10.856;2022-12-07T12:09:51;4.00;;;1.80;;
50205;SDS011;36098;48.390;10.856;2022-12-07T12:16:07;2.78;;;1.75;;
50205;SDS011;36098;48.390;10.856;2022-12-07T12:18:38;3.30;;;1.85;;
50205;SDS011;36098;48.390;10.856;2022-12-07T12:21:13;5.97;;;1.83;;
50205;SDS011;36098;48.390;10.856;2022-12-07T12:23:47;1.90;;;1.60;;
50205;SDS011;36098;48.390;10.856;2022-12-07T12:26:20;3.72;;;1.75;;
50205;SDS011;36098;48.390;10.856;2022-12-07T12:33:48;3.90;;;1.77;;
50205;SDS011;36098;48.390;10.856;2022-12-07T12:47:03;1.80;;;1.47;;
50205;SDS011;36098;48.390;10.856;2022-12-07T12:55:11;4.32;;;1.48;;
50205;SDS011;36098;48.390;10.856;2022-12-07T12:57:28;3.75;;;1.52;;
50205;SDS011;36098;48.390;10.856;2022-12-07T13:20:56;2.40;;;1.67;;
50205;SDS011;36098;48.390;10.856;2022-12-07T13:26:14;5.43;;;1.60;;
50205;SDS011;36098;48.390;10.856;2022-12-07T13:29:11;8.82;;;1.70;;
50205;SDS011;36098;48.390;10.856;2022-12-07T13:36:54;2.05;;;1.50;;
50205;SDS011;36098;48.390;10.856;2022-12-07T13:39:21;4.90;;;1.52;;
50205;SDS011;36098;48.390;10.856;2022-12-07T13:41:52;3.45;;;1.42;;
50205;SDS011;36098;48.390;10.856;2022-12-07T13:44:20;4.20;;;1.55;;
50205;SDS011;36098;48.390;10.856;2022-12-07T13:47:06;3.72;;;1.38;;
50205;SDS011;36098;48.390;10.856;2022-12-07T13:49:38;5.47;;;1.50;;
50205;SDS011;36098;48.390;10.856;2022-12-07T13:55:30;7.95;;;2.42;;
50205;SDS011;36098;48.390;10.856;2022-12-07T14:00:06;10.85;;;2.53;;
50205;SDS011;36098;48.390;10.856;2022-12-07T14:05:28;11.63;;;4.30;;
50205;SDS011;36098;48.390;10.856;2022-12-07T14:08:43;11.05;;;3.30;;
50205;SDS011;36098;48.390;10.856;2022-12-07T14:16:00;11.30;;;4.75;;
50205;SDS011;36098;48.390;10.856;2022-12-07T14:18:38;11.27;;;5.80;;
50205;SDS011;36098;48.390;10.856;2022-12-07T14:21:18;17.80;;;5.82;;
50205;SDS011;36098;48.390;10.856;2022-12-07T14:23:45;16.65;;;6.00;;
50205;SDS011;36098;48.390;10.856;2022-12-07T14:26:27;17.55;;;7.07;;
50205;SDS011;36098;48.390;10.856;2022-12-07T14:29:18;14.07;;;6.82;;
50205;SDS011;36098;48.390;10.856;2022-12-07T14:32:13;17.23;;;6.40;;
50205;SDS011;36098;48.390;10.856;2022-12-07T14:34:54;16.40;;;6.72;;
50205;SDS011;36098;48.390;10.856;2022-12-07T14:37:23;15.52;;;6.35;;
50205;SDS011;36098;48.390;10.856;2022-12-07T14:39:49;13.45;;;6.32;;
50205;SDS011;36098;48.390;10.856;2022-12-07T14:42:14;18.83;;;6.53;;
50205;SDS011;36098;48.390;10.856;2022-12-07T14:44:39;12.90;;;6.15;;
50205;SDS011;36098;48.390;10.856;2022-12-07T14:47:05;16.58;;;6.63;;
50205;SDS011;36098;48.390;10.856;2022-12-07T14:49:32;15.02;;;6.32;;
50205;SDS011;36098;48.390;10.856;2022-12-07T14:51:58;15.75;;;5.55;;
50205;SDS011;36098;48.390;10.856;2022-12-07T14:54:23;14.50;;;5.70;;
50205;SDS011;36098;48.390;10.856;2022-12-07T14:56:54;13.77;;;5.72;;
50205;SDS011;36098;48.390;10.856;2022-12-07T14:59:19;13.52;;;5.35;;
50205;SDS011;36098;48.390;10.856;2022-12-07T15:01:45;16.95;;;5.85;;
50205;SDS011;36098;48.390;10.856;2022-12-07T15:04:10;13.48;;;6.03;;
50205;SDS011;36098;48.390;10.856;2022-12-07T15:06:35;13.38;;;5.53;;
50205;SDS011;36098;48.390;10.856;2022-12-07T15:09:01;12.02;;;5.40;;
50205;SDS011;36098;48.390;10.856;2022-12-07T15:11:26;14.13;;;5.25;;
50205;SDS011;36098;48.390;10.856;2022-12-07T15:13:52;13.13;;;5.70;;
50205;SDS011;36098;48.390;10.856;2022-12-07T15:16:32;13.30;;;5.05;;
50205;SDS011;36098;48.390;10.856;2022-12-07T15:18:58;12.75;;;4.53;;
50205;SDS011;36098;48.390;10.856;2022-12-07T15:21:23;15.75;;;5.15;;
50205;SDS011;36098;48.390;10.856;2022-12-07T15:23:49;11.95;;;4.65;;
50205;SDS011;36098;48.390;10.856;2022-12-07T15:26:14;14.45;;;4.30;;
50205;SDS011;36098;48.390;10.856;2022-12-07T15:28:40;12.95;;;4.80;;
50205;SDS011;36098;48.390;10.856;2022-12-07T15:31:16;11.82;;;4.50;;
50205;SDS011;36098;48.390;10.856;2022-12-07T15:33:42;11.05;;;4.60;;
50205;SDS011;36098;48.390;10.856;2022-12-07T15:36:08;9.55;;;4.47;;
50205;SDS011;36098;48.390;10.856;2022-12-07T15:38:44;12.77;;;4.18;;
50205;SDS011;36098;48.390;10.856;2022-12-07T15:41:09;20.10;;;4.95;;
50205;SDS011;36098;48.390;10.856;2022-12-07T15:43:35;14.65;;;4.68;;
50205;SDS011;36098;48.390;10.856;2022-12-07T15:46:19;13.40;;;5.20;;
50205;SDS011;36098;48.390;10.856;2022-12-07T15:48:45;12.40;;;5.18;;
50205;SDS011;36098;48.390;10.856;2022-12-07T15:51:10;21.30;;;7.03;;
50205;SDS011;36098;48.390;10.856;2022-12-07T15:53:36;16.27;;;7.18;;
50205;SDS011;36098;48.390;10.856;2022-12-07T15:56:01;21.27;;;8.25;;
50205;SDS011;36098;48.390;10.856;2022-12-07T15:58:31;17.05;;;7.55;;
50205;SDS011;36098;48.390;10.856;2022-12-07T16:00:56;17.23;;;7.90;;
50205;SDS011;36098;48.390;10.856;2022-12-07T16:03:21;17.23;;;7.35;;
50205;SDS011;36098;48.390;10.856;2022-12-07T16:05:50;15.98;;;6.30;;
50205;SDS011;36098;48.390;10.856;2022-12-07T16:08:16;17.10;;;6.00;;
50205;SDS011;36098;48.390;10.856;2022-12-07T16:10:41;17.63;;;6.30;;
50205;SDS011;36098;48.390;10.856;2022-12-07T16:13:08;13.98;;;6.15;;
50205;SDS011;36098;48.390;10.856;2022-12-07T16:15:38;17.88;;;6.28;;
50205;SDS011;36098;48.390;10.856;2022-12-07T16:18:04;14.30;;;5.63;;
50205;SDS011;36098;48.390;10.856;2022-12-07T16:20:29;12.68;;;6.05;;
50205;SDS011;36098;48.390;10.856;2022-12-07T16:22:54;14.05;;;5.95;;
50205;SDS011;36098;48.390;10.856;2022-12-07T16:25:20;13.90;;;5.28;;
50205;SDS011;36098;48.390;10.856;2022-12-07T16:27:45;15.82;;;5.25;;
50205;SDS011;36098;48.390;10.856;2022-12-07T16:30:11;13.23;;;5.55;;
50205;SDS011;36098;48.390;10.856;2022-12-07T16:32:37;192.85;;;54.85;;
50205;SDS011;36098;48.390;10.856;2022-12-07T16:35:02;85.60;;;31.30;;
50205;SDS011;36098;48.390;10.856;2022-12-07T16:37:28;47.88;;;18.08;;
50205;SDS011;36098;48.390;10.856;2022-12-07T16:39:53;37.22;;;13.27;;
50205;SDS011;36098;48.390;10.856;2022-12-07T16:42:19;27.08;;;10.88;;
50205;SDS011;36098;48.390;10.856;2022-12-07T16:44:44;26.38;;;10.25;;
50205;SDS011;36098;48.390;10.856;2022-12-07T16:47:09;26.42;;;8.82;;
50205;SDS011;36098;48.390;10.856;2022-12-07T16:49:34;19.17;;;7.95;;
50205;SDS011;36098;48.390;10.856;2022-12-07T16:52:00;20.38;;;7.53;;
50205;SDS011;36098;48.390;10.856;2022-12-07T16:54:25;20.33;;;7.55;;
50205;SDS011;36098;48.390;10.856;2022-12-07T16:56:53;20.40;;;7.50;;
50205;SDS011;36098;48.390;10.856;2022-12-07T16:59:18;16.45;;;7.43;;
50205;SDS011;36098;48.390;10.856;2022-12-07T17:01:44;15.75;;;6.47;;
50205;SDS011;36098;48.390;10.856;2022-12-07T17:04:09;15.52;;;6.40;;